Time;durP1;ratioP1;P1;durP2;ratioP2;P2;SDS_P1;SDS_P2;PMS_P1;PMS_P2;Temp;Humidity;BMP_temperature;BMP_pressure;BME280_temperature;BME280_humidity;BME280_pressure;Samples;Min_cycle;Max_cycle;Signal;HPM_P1;HPM_P2
2023/04/10 00:01:49;;;;;;;2.93;1.17;;;10.60;59.60;;;;;;6274844;22;20422;-65
2023/04/10 00:04:15;;;;;;;0.80;0.80;;;10.70;59.70;;;;;;6275398;22;20015;-65
2023/04/10 00:06:41;;;;;;;1.15;0.90;;;10.70;59.80;;;;;;6275028;22;20011;-66
2023/04/10 00:09:07;;;;;;;1.43;0.90;;;10.70;59.70;;;;;;6276063;22;20003;-65
2023/04/10 00:11:33;;;;;;;1.37;1.00;;;10.60;59.80;;;;;;6275854;22;20014;-65
2023/04/10 00:13:59;;;;;;;1.43;1.20;;;10.60;59.70;;;;;;6275720;22;20000;-65
2023/04/10 00:16:25;;;;;;;1.67;1.10;;;10.70;59.80;;;;;;6275945;22;19999;-65
2023/04/10 00:18:51;;;;;;;1.33;1.00;;;10.60;59.90;;;;;;6276120;22;20357;-65
2023/04/10 00:21:16;;;;;;;1.23;1.00;;;10.60;59.90;;;;;;6275687;22;20065;-65
2023/04/10 00:23:42;;;;;;;2.03;1.20;;;10.60;59.80;;;;;;6275670;22;20212;-65
2023/04/10 00:26:08;;;;;;;1.40;1.10;;;10.60;59.70;;;;;;6275719;22;19999;-65
2023/04/10 00:28:36;;;;;;;1.83;1.20;;;10.60;59.80;;;;;;6275814;22;20003;-65
2023/04/10 00:31:03;;;;;;;2.70;1.40;;;10.60;60.00;;;;;;6276151;22;20330;-65
2023/04/10 00:33:29;;;;;;;1.93;1.40;;;10.60;60.20;;;;;;6276209;22;20398;-65
2023/04/10 00:35:55;;;;;;;1.90;1.40;;;10.60;60.50;;;;;;6278177;22;20692;-65
2023/04/10 00:38:21;;;;;;;1.45;1.02;;;10.50;60.40;;;;;;6277562;22;20007;-65
2023/04/10 00:40:47;;;;;;;1.60;1.20;;;10.50;60.40;;;;;;6277844;22;20046;-65
2023/04/10 00:43:13;;;;;;;1.53;1.27;;;10.50;60.40;;;;;;6277457;22;20004;-65
2023/04/10 00:45:39;;;;;;;2.83;1.20;;;10.50;60.40;;;;;;6277646;22;19996;-65
2023/04/10 00:48:05;;;;;;;1.92;1.00;;;10.50;60.60;;;;;;6277657;22;20418;-65
2023/04/10 00:50:31;;;;;;;1.65;1.17;;;10.50;60.60;;;;;;6277336;22;20022;-65
2023/04/10 00:52:57;;;;;;;1.57;1.20;;;10.50;60.80;;;;;;6277149;22;20016;-65
2023/04/10 00:55:24;;;;;;;3.13;1.02;;;10.50;60.80;;;;;;6277156;22;20083;-65
2023/04/10 00:57:50;;;;;;;1.23;1.10;;;10.50;60.90;;;;;;6276332;22;20089;-65
2023/04/10 01:00:17;;;;;;;1.55;1.20;;;10.50;61.20;;;;;;6274084;22;20425;-65
2023/04/10 01:02:43;;;;;;;1.30;1.20;;;10.50;60.90;;;;;;6273969;22;20567;-65
2023/04/10 01:05:11;;;;;;;1.77;1.20;;;10.50;61.20;;;;;;6275487;22;20045;-65
2023/04/10 01:07:37;;;;;;;2.25;1.40;;;10.50;62.00;;;;;;6277067;22;20035;-65
2023/04/10 01:10:23;;;;;;;1.63;1.20;;;10.50;61.80;;;;;;6277107;22;20000;-65
2023/04/10 01:12:49;;;;;;;1.73;1.33;;;10.40;61.70;;;;;;6277385;22;19995;-65
2023/04/10 01:15:20;;;;;;;1.40;1.07;;;10.40;61.50;;;;;;6277382;22;20007;-65
2023/04/10 01:18:12;;;;;;;1.83;1.20;;;10.40;62.00;;;;;;6276998;22;20426;-65
2023/04/10 01:20:40;;;;;;;1.45;1.15;;;10.30;62.10;;;;;;6276667;22;20367;-65
2023/04/10 01:23:41;;;;;;;1.50;1.17;;;10.30;62.30;;;;;;6277120;22;20337;-65
2023/04/10 01:26:09;;;;;;;1.50;1.20;;;10.20;62.50;;;;;;6277354;22;19999;-65
2023/04/10 01:29:00;;;;;;;1.73;1.10;;;10.20;62.50;;;;;;6276927;22;20448;-65
2023/04/10 01:31:38;;;;;;;1.83;1.13;;;10.20;62.50;;;;;;6277008;22;20000;-66
2023/04/10 01:34:09;;;;;;;1.67;1.30;;;10.20;62.30;;;;;;6277032;22;19999;-66
2023/04/10 01:36:49;;;;;;;1.67;1.00;;;10.10;62.60;;;;;;6277037;22;20000;-66
2023/04/10 01:39:19;;;;;;;1.73;1.17;;;10.00;62.70;;;;;;6276895;22;20031;-66
2023/04/10 01:41:46;;;;;;;2.07;1.40;;;10.10;63.50;;;;;;6276882;22;20004;-66
2023/04/10 01:44:14;;;;;;;2.30;1.40;;;10.00;63.40;;;;;;6276794;22;20003;-65
2023/04/10 01:46:42;;;;;;;1.67;1.20;;;10.00;63.30;;;;;;6277020;22;20003;-65
2023/04/10 01:49:09;;;;;;;1.83;1.30;;;10.00;63.40;;;;;;6277149;22;20004;-65
2023/04/10 01:51:36;;;;;;;1.60;1.20;;;9.90;63.50;;;;;;6277078;22;19999;-66
2023/04/10 01:54:03;;;;;;;1.80;1.50;;;9.90;63.80;;;;;;6277355;22;20385;-66
2023/04/10 01:56:29;;;;;;;1.53;1.10;;;9.90;64.00;;;;;;6277361;22;20091;-66
2023/04/10 01:58:55;;;;;;;1.60;1.23;;;9.80;63.70;;;;;;6276922;22;20046;-66
2023/04/10 02:01:21;;;;;;;2.07;1.20;;;9.80;63.60;;;;;;6276903;22;20004;-66
2023/04/10 02:03:47;;;;;;;2.60;1.80;;;9.80;63.30;;;;;;6276877;22;20088;-66
2023/04/10 02:06:33;;;;;;;2.20;1.60;;;9.70;63.10;;;;;;6277078;22;20012;-65
2023/04/10 02:09:09;;;;;;;2.03;1.57;;;9.70;63.10;;;;;;6276686;22;20000;-65
2023/04/10 02:11:57;;;;;;;2.20;1.50;;;9.70;62.90;;;;;;6276876;22;19996;-66
2023/04/10 02:14:27;;;;;;;2.03;1.33;;;9.70;62.60;;;;;;6276642;22;20180;-65
2023/04/10 02:16:54;;;;;;;2.63;1.97;;;9.70;62.50;;;;;;6276498;22;20008;-66
2023/04/10 02:19:22;;;;;;;2.07;1.70;;;9.60;62.40;;;;;;6276500;22;20006;-65
2023/04/10 02:21:50;;;;;;;2.43;1.70;;;9.60;62.50;;;;;;6276587;22;19996;-66
2023/04/10 02:24:17;;;;;;;3.30;2.07;;;9.60;62.40;;;;;;6277017;22;20034;-66
2023/04/10 02:26:47;;;;;;;1.80;1.50;;;9.60;62.20;;;;;;6276832;22;20425;-65
2023/04/10 02:29:13;;;;;;;2.20;1.23;;;9.60;62.10;;;;;;6276712;22;20008;-65
2023/04/10 02:31:42;;;;;;;4.50;1.70;;;9.60;62.10;;;;;;6276474;22;20360;-65
2023/04/10 02:34:08;;;;;;;3.10;2.00;;;9.50;62.60;;;;;;6276641;22;20069;-65
2023/04/10 02:36:35;;;;;;;3.40;2.00;;;9.60;62.30;;;;;;6276615;22;20043;-65
2023/04/10 02:39:01;;;;;;;2.27;1.73;;;9.50;62.30;;;;;;6276151;22;19996;-65
2023/04/10 02:41:27;;;;;;;2.30;2.00;;;9.50;62.10;;;;;;6276464;22;20004;-65
2023/04/10 02:43:52;;;;;;;2.40;2.03;;;9.50;61.90;;;;;;6276142;22;20023;-65
2023/04/10 02:46:18;;;;;;;2.90;1.97;;;9.50;62.10;;;;;;6276574;22;19996;-66
2023/04/10 02:48:44;;;;;;;2.23;1.53;;;9.50;62.40;;;;;;6276582;22;20452;-66
2023/04/10 02:51:09;;;;;;;2.80;2.07;;;9.50;62.50;;;;;;6276206;22;20015;-65
2023/04/10 02:53:35;;;;;;;2.30;2.10;;;9.50;62.20;;;;;;6276582;22;20007;-66
2023/04/10 02:56:01;;;;;;;3.40;2.40;;;9.50;62.00;;;;;;6276526;22;20710;-66
2023/04/10 02:58:29;;;;;;;3.07;2.27;;;9.50;62.40;;;;;;6275813;22;20034;-66
2023/04/10 03:00:55;;;;;;;2.90;2.17;;;9.50;62.50;;;;;;6276574;22;20014;-65
2023/04/10 03:03:21;;;;;;;2.90;2.37;;;9.40;62.70;;;;;;6276365;22;20012;-65
2023/04/10 03:05:48;;;;;;;2.83;2.37;;;9.40;62.80;;;;;;6276392;22;20000;-66
2023/04/10 03:08:15;;;;;;;3.10;2.17;;;9.40;62.70;;;;;;6276025;22;20113;-66
2023/04/10 03:10:44;;;;;;;3.37;2.60;;;9.40;62.80;;;;;;6276269;22;20321;-66
2023/04/10 03:13:10;;;;;;;3.40;2.37;;;9.40;63.00;;;;;;6275845;22;20004;-66
2023/04/10 03:15:37;;;;;;;3.53;2.50;;;9.40;62.90;;;;;;6275968;22;20459;-66
2023/04/10 03:18:04;;;;;;;3.13;2.73;;;9.30;62.80;;;;;;6276397;22;20020;-65
2023/04/10 03:20:31;;;;;;;4.00;2.60;;;9.30;62.80;;;;;;6276371;22;20045;-65
2023/04/10 03:22:58;;;;;;;3.73;2.63;;;9.30;63.20;;;;;;6276293;22;20027;-66
2023/04/10 03:25:24;;;;;;;3.50;2.57;;;9.20;63.30;;;;;;6276367;22;20414;-66
2023/04/10 03:27:50;;;;;;;3.90;2.87;;;9.30;63.20;;;;;;6275630;22;20007;-65
2023/04/10 03:30:16;;;;;;;4.43;2.80;;;9.20;62.80;;;;;;6275971;22;20074;-65
2023/04/10 03:32:42;;;;;;;3.57;2.60;;;9.20;62.80;;;;;;6276393;22;20003;-65
2023/04/10 03:35:11;;;;;;;3.80;2.80;;;9.20;62.80;;;;;;6276220;22;20065;-65
2023/04/10 03:37:37;;;;;;;3.27;2.63;;;9.20;63.10;;;;;;6275708;22;20059;-65
2023/04/10 03:40:07;;;;;;;4.10;2.57;;;9.20;63.20;;;;;;6275928;22;20027;-65
2023/04/10 03:42:34;;;;;;;4.30;3.17;;;9.20;63.00;;;;;;6275952;22;20079;-65
2023/04/10 03:45:03;;;;;;;3.57;2.83;;;9.20;62.90;;;;;;6275951;22;20000;-65
2023/04/10 03:47:32;;;;;;;2.83;2.50;;;9.20;63.20;;;;;;6276306;22;20008;-65
2023/04/10 03:49:58;;;;;;;4.03;2.80;;;9.20;63.00;;;;;;6275684;22;20091;-66
2023/04/10 03:52:26;;;;;;;3.33;2.70;;;9.20;63.20;;;;;;6275901;22;20035;-65
2023/04/10 03:54:53;;;;;;;4.40;3.60;;;9.20;63.20;;;;;;6275968;22;20307;-65
2023/04/10 03:57:20;;;;;;;6.37;5.77;;;9.20;63.60;;;;;;6276098;22;20325;-65
2023/04/10 03:59:48;;;;;;;4.60;3.10;;;9.10;63.80;;;;;;6276272;22;20369;-66
2023/04/10 04:02:14;;;;;;;4.40;3.20;;;9.10;63.70;;;;;;6276305;22;20015;-65
2023/04/10 04:04:40;;;;;;;3.23;2.60;;;9.10;63.60;;;;;;6276414;22;20004;-66
2023/04/10 04:07:06;;;;;;;3.47;2.70;;;9.10;63.70;;;;;;6275888;22;20079;-65
2023/04/10 04:09:32;;;;;;;3.17;2.77;;;9.10;63.50;;;;;;6276505;22;20006;-65
2023/04/10 04:11:57;;;;;;;3.73;2.80;;;9.10;63.60;;;;;;6277985;22;20034;-66
2023/04/10 04:14:23;;;;;;;3.07;2.60;;;9.10;63.90;;;;;;6278071;22;19996;-65
2023/04/10 04:16:49;;;;;;;3.90;3.03;;;9.10;63.90;;;;;;6278385;22;20000;-65
2023/04/10 04:19:15;;;;;;;3.23;2.47;;;9.10;63.90;;;;;;6278138;22;20075;-65
2023/04/10 04:21:40;;;;;;;3.70;2.97;;;9.00;63.90;;;;;;6277933;22;20000;-66
2023/04/10 04:24:06;;;;;;;3.50;2.63;;;9.10;64.10;;;;;;6277806;22;20018;-65
2023/04/10 04:26:32;;;;;;;3.20;2.60;;;9.10;64.20;;;;;;6250963;22;20369;-65
2023/04/10 04:28:58;;;;;;;3.37;2.83;;;9.10;63.90;;;;;;6277817;22;20079;-65
2023/04/10 04:31:24;;;;;;;4.13;3.10;;;9.00;65.00;;;;;;6277930;22;19992;-65
2023/04/10 04:33:50;;;;;;;3.50;2.80;;;9.10;64.00;;;;;;6277967;22;20004;-66
2023/04/10 04:36:15;;;;;;;3.73;2.73;;;9.10;64.00;;;;;;6277973;22;20031;-66
2023/04/10 04:38:42;;;;;;;4.17;2.50;;;9.00;63.80;;;;;;6277653;22;20000;-65
2023/04/10 04:41:08;;;;;;;4.13;2.70;;;9.00;64.00;;;;;;6277370;22;20443;-65
2023/04/10 04:43:33;;;;;;;4.93;3.33;;;9.00;63.90;;;;;;6277723;22;20023;-65
2023/04/10 04:45:59;;;;;;;3.73;3.03;;;9.00;64.00;;;;;;6277559;22;20331;-65
2023/04/10 04:48:25;;;;;;;3.50;2.80;;;8.90;64.50;;;;;;6277449;22;20004;-65
2023/04/10 04:50:50;;;;;;;3.07;2.50;;;8.90;64.40;;;;;;6277299;22;20019;-66
2023/04/10 04:53:16;;;;;;;3.80;2.83;;;8.90;64.60;;;;;;6277795;22;20023;-66
2023/04/10 04:55:42;;;;;;;3.47;2.70;;;8.90;64.80;;;;;;6277705;22;20007;-66
2023/04/10 04:58:08;;;;;;;4.50;2.70;;;8.90;64.90;;;;;;6277947;22;20008;-65
2023/04/10 05:00:33;;;;;;;3.53;2.97;;;8.90;64.90;;;;;;6277505;22;20000;-66
2023/04/10 05:02:59;;;;;;;3.50;3.03;;;8.80;64.50;;;;;;6277399;22;20133;-65
2023/04/10 05:05:25;;;;;;;3.70;3.00;;;8.80;65.00;;;;;;6277371;22;20000;-66
2023/04/10 05:07:51;;;;;;;3.80;2.83;;;8.80;64.90;;;;;;6277702;22;20019;-65
2023/04/10 05:10:16;;;;;;;3.20;2.77;;;8.80;65.10;;;;;;6277337;22;20330;-65
2023/04/10 05:12:42;;;;;;;3.17;2.50;;;8.80;64.80;;;;;;6277462;22;20004;-65
2023/04/10 05:15:09;;;;;;;2.90;2.53;;;8.80;65.60;;;;;;6277408;22;20008;-65
2023/04/10 05:17:34;;;;;;;4.23;3.10;;;8.80;65.60;;;;;;6277456;22;20007;-65
2023/04/10 05:20:00;;;;;;;3.40;2.70;;;8.80;66.00;;;;;;6277192;22;20002;-66
2023/04/10 05:22:27;;;;;;;3.77;2.60;;;8.80;66.10;;;;;;6277188;22;20096;-65
2023/04/10 05:24:54;;;;;;;3.83;2.83;;;8.80;66.80;;;;;;6277630;22;20023;-67
2023/04/10 05:27:20;;;;;;;6.83;3.03;;;8.80;66.80;;;;;;6277321;22;20410;-66
2023/04/10 05:29:46;;;;;;;3.60;2.90;;;8.80;66.20;;;;;;6277335;22;19996;-65
2023/04/10 05:32:13;;;;;;;3.83;3.00;;;8.80;65.60;;;;;;6277446;22;20003;-65
2023/04/10 05:34:39;;;;;;;3.37;2.63;;;8.90;65.80;;;;;;6277165;22;20007;-66
2023/04/10 05:37:04;;;;;;;3.47;2.70;;;8.90;65.40;;;;;;6277246;22;19996;-66
2023/04/10 05:39:30;;;;;;;3.37;2.80;;;8.90;65.70;;;;;;6277072;22;20000;-65
2023/04/10 05:41:57;;;;;;;3.40;3.00;;;8.90;66.10;;;;;;6276795;22;20368;-65
2023/04/10 05:44:23;;;;;;;3.70;3.00;;;9.00;66.10;;;;;;6249864;22;20003;-66
2023/04/10 05:46:49;;;;;;;4.77;2.80;;;9.00;66.40;;;;;;6276978;22;20023;-65
2023/04/10 05:49:15;;;;;;;3.90;3.03;;;9.10;65.50;;;;;;6276843;22;20011;-65
2023/04/10 05:51:41;;;;;;;5.17;3.50;;;9.10;65.30;;;;;;6277136;22;20057;-66
2023/04/10 05:54:07;;;;;;;3.80;2.80;;;9.10;65.40;;;;;;6276981;22;20414;-65
2023/04/10 05:56:33;;;;;;;3.53;2.60;;;9.20;65.10;;;;;;6277014;22;20010;-65
2023/04/10 05:58:58;;;;;;;3.77;2.80;;;9.20;65.00;;;;;;6276933;22;20068;-66
2023/04/10 06:01:24;;;;;;;3.87;3.00;;;9.20;65.00;;;;;;6276985;22;20057;-65
2023/04/10 06:03:50;;;;;;;3.87;2.83;;;9.30;64.70;;;;;;6276776;22;20011;-66
2023/04/10 06:06:16;;;;;;;4.43;3.03;;;9.30;64.80;;;;;;6277054;22;20334;-66
2023/04/10 06:08:42;;;;;;;4.07;3.37;;;9.40;64.80;;;;;;6276834;22;20007;-65
2023/04/10 06:11:08;;;;;;;3.83;3.10;;;9.40;64.70;;;;;;6276855;22;20019;-65
2023/04/10 06:13:33;;;;;;;5.10;3.60;;;9.40;64.80;;;;;;6276889;22;20042;-65
2023/04/10 06:16:00;;;;;;;4.00;3.17;;;9.50;64.80;;;;;;6276697;22;19996;-65
2023/04/10 06:18:25;;;;;;;4.00;3.00;;;9.50;64.30;;;;;;6276698;22;20003;-66
2023/04/10 06:20:51;;;;;;;3.67;2.90;;;9.50;64.30;;;;;;6276838;22;20006;-66
2023/04/10 06:23:17;;;;;;;5.10;2.77;;;9.60;64.40;;;;;;6276621;22;20008;-66
2023/04/10 06:25:43;;;;;;;3.77;2.90;;;9.60;64.30;;;;;;6276663;22;20022;-65
2023/04/10 06:28:08;;;;;;;3.40;2.67;;;9.70;64.10;;;;;;6276655;22;20035;-66
2023/04/10 06:30:36;;;;;;;3.60;2.50;;;9.80;63.90;;;;;;6276541;22;20061;-65
2023/04/10 06:33:01;;;;;;;4.17;2.60;;;9.80;63.40;;;;;;6276253;22;20010;-66
2023/04/10 06:35:27;;;;;;;3.30;2.87;;;9.90;62.70;;;;;;6276197;22;20413;-65
2023/04/10 06:37:53;;;;;;;4.77;3.30;;;10.00;62.00;;;;;;6276613;22;20326;-66
2023/04/10 06:40:19;;;;;;;4.27;2.70;;;10.10;61.80;;;;;;6276478;22;20437;-66
2023/04/10 06:42:44;;;;;;;3.57;2.97;;;10.10;61.30;;;;;;6276225;22;20008;-66
2023/04/10 06:45:10;;;;;;;4.20;3.00;;;10.20;61.30;;;;;;6276248;22;20422;-65
2023/04/10 06:47:36;;;;;;;3.07;2.40;;;10.20;61.50;;;;;;6276738;22;20054;-66
2023/04/10 06:50:02;;;;;;;3.07;2.40;;;10.30;61.40;;;;;;6276401;22;20046;-65
2023/04/10 06:52:27;;;;;;;3.60;2.60;;;10.30;61.20;;;;;;6276197;22;20061;-65
2023/04/10 06:54:53;;;;;;;3.63;3.00;;;10.40;61.10;;;;;;6276312;22;20007;-64
2023/04/10 06:57:19;;;;;;;5.93;3.00;;;10.40;61.10;;;;;;6276356;22;19996;-64
2023/04/10 06:59:45;;;;;;;3.07;2.53;;;10.50;60.30;;;;;;6276359;22;20422;-67
2023/04/10 07:02:10;;;;;;;3.07;2.43;;;10.50;59.80;;;;;;6276494;22;20012;-65
2023/04/10 07:04:36;;;;;;;3.67;2.60;;;10.60;59.60;;;;;;6276278;22;19995;-65
2023/04/10 07:07:02;;;;;;;4.60;2.43;;;10.60;59.50;;;;;;6276346;22;20074;-67
2023/04/10 07:09:29;;;;;;;3.07;2.33;;;10.70;58.90;;;;;;6276151;22;20004;-65
2023/04/10 07:11:54;;;;;;;4.70;2.70;;;10.80;58.70;;;;;;6276256;22;20078;-66
2023/04/10 07:14:20;;;;;;;3.43;2.70;;;10.80;58.80;;;;;;6275248;22;20026;-65
2023/04/10 07:16:47;;;;;;;3.15;2.53;;;10.90;59.00;;;;;;6275709;22;20003;-66
2023/04/10 07:19:12;;;;;;;3.00;2.30;;;10.90;58.60;;;;;;6275835;22;20103;-64
2023/04/10 07:21:38;;;;;;;3.77;2.50;;;10.90;58.00;;;;;;6275955;22;20022;-64
2023/04/10 07:24:04;;;;;;;4.13;2.33;;;11.00;57.70;;;;;;6275423;22;20007;-65
2023/04/10 07:26:30;;;;;;;3.28;2.65;;;11.00;57.00;;;;;;6276044;22;20079;-66
2023/04/10 07:28:55;;;;;;;4.03;2.90;;;11.00;57.00;;;;;;6275796;22;20011;-65
2023/04/10 07:31:21;;;;;;;2.80;2.30;;;11.10;57.60;;;;;;6275074;22;20000;-66
2023/04/10 07:33:47;;;;;;;3.47;2.40;;;11.10;57.20;;;;;;6274967;22;20126;-65
2023/04/10 07:36:12;;;;;;;2.70;2.20;;;11.20;56.90;;;;;;6275283;22;20468;-65
2023/04/10 07:38:38;;;;;;;2.72;2.33;;;11.30;56.80;;;;;;6247445;22;20011;-66
2023/04/10 07:41:04;;;;;;;3.53;2.60;;;11.30;56.50;;;;;;6275486;22;20004;-67
2023/04/10 07:43:30;;;;;;;3.22;2.38;;;11.30;55.80;;;;;;6275869;22;20357;-65
2023/04/10 07:45:56;;;;;;;3.85;2.70;;;11.40;56.30;;;;;;6277416;22;19996;-65
2023/04/10 07:48:22;;;;;;;2.85;2.20;;;11.40;56.50;;;;;;6277238;22;20003;-67
2023/04/10 07:50:48;;;;;;;2.47;2.10;;;11.50;55.80;;;;;;6277440;22;20636;-66
2023/04/10 07:53:14;;;;;;;3.08;2.40;;;11.60;55.50;;;;;;6277544;22;20093;-67
2023/04/10 07:55:44;;;;;;;3.13;2.72;;;11.70;55.20;;;;;;6277656;22;20027;-65
2023/04/10 07:58:10;;;;;;;3.53;2.70;;;11.70;55.40;;;;;;6278475;22;20303;-67
2023/04/10 08:00:36;;;;;;;6.55;2.50;;;11.80;55.30;;;;;;6277090;22;20087;-67
2023/04/10 08:03:03;;;;;;;3.10;2.53;;;11.90;54.80;;;;;;6277518;22;20043;-67
2023/04/10 08:05:29;;;;;;;2.78;2.35;;;12.00;53.80;;;;;;6277632;22;20031;-65
2023/04/10 08:07:55;;;;;;;2.95;2.40;;;12.00;54.30;;;;;;6277818;22;20430;-65
2023/04/10 08:10:21;;;;;;;4.57;2.20;;;12.10;54.50;;;;;;6277581;22;20002;-65
2023/04/10 08:12:47;;;;;;;3.83;2.70;;;12.10;54.20;;;;;;6277936;22;20076;-66
2023/04/10 08:15:13;;;;;;;5.82;2.67;;;12.10;53.00;;;;;;6277388;22;20027;-64
2023/04/10 08:17:39;;;;;;;4.18;2.50;;;12.10;54.60;;;;;;6277568;22;20003;-65
2023/04/10 08:20:05;;;;;;;2.78;2.45;;;12.20;55.00;;;;;;6277424;22;20428;-65
2023/04/10 08:22:31;;;;;;;4.00;2.50;;;12.20;54.20;;;;;;6277409;22;20012;-65
2023/04/10 08:24:57;;;;;;;3.40;2.60;;;12.30;54.20;;;;;;6277437;22;20004;-65
2023/04/10 08:27:22;;;;;;;4.25;2.60;;;12.30;54.40;;;;;;6277333;22;20307;-65
2023/04/10 08:29:48;;;;;;;12.98;3.03;;;12.40;53.70;;;;;;6277320;22;20065;-65
2023/04/10 08:32:14;;;;;;;3.25;2.65;;;12.40;56.00;;;;;;6277611;22;20468;-66
2023/04/10 08:34:39;;;;;;;3.40;2.67;;;12.50;55.30;;;;;;6277998;22;20012;-66
2023/04/10 08:37:08;;;;;;;3.05;2.42;;;12.50;54.80;;;;;;6277382;22;19996;-66
2023/04/10 08:39:35;;;;;;;3.15;2.45;;;12.60;54.30;;;;;;6277805;22;20380;-65
2023/04/10 08:42:01;;;;;;;2.97;2.35;;;12.70;53.80;;;;;;6276399;22;20379;-66
2023/04/10 08:44:27;;;;;;;3.10;2.45;;;12.70;55.40;;;;;;6276774;22;20007;-65
2023/04/10 08:46:57;;;;;;;3.72;2.67;;;12.80;53.80;;;;;;6277394;22;19996;-65
2023/04/10 08:50:02;;;;;;;2.85;2.25;;;12.80;54.10;;;;;;6277332;22;20031;-66
2023/04/10 08:52:33;;;;;;;3.90;2.45;;;12.90;54.60;;;;;;6254892;22;20434;-65
2023/04/10 08:55:01;;;;;;;3.47;2.80;;;13.00;53.00;;;;;;6277037;22;20007;-66
2023/04/10 08:57:28;;;;;;;4.70;2.30;;;13.00;52.80;;;;;;6277141;22;19996;-66
2023/04/10 08:59:54;;;;;;;3.53;2.60;;;13.10;52.40;;;;;;6277286;22;20371;-66
2023/04/10 09:02:21;;;;;;;2.65;2.42;;;13.10;52.50;;;;;;6276772;22;20415;-67
2023/04/10 09:04:55;;;;;;;3.38;2.53;;;13.20;52.60;;;;;;6276890;22;20330;-66
2023/04/10 09:07:22;;;;;;;2.63;2.33;;;13.30;51.80;;;;;;6276704;22;20003;-66
2023/04/10 09:09:47;;;;;;;2.30;2.10;;;13.40;52.90;;;;;;6276474;22;20008;-65
2023/04/10 09:12:15;;;;;;;2.25;1.92;;;13.40;50.50;;;;;;6277026;22;20065;-66
2023/04/10 09:14:41;;;;;;;2.95;2.30;;;13.50;50.60;;;;;;6277203;22;20007;-66
2023/04/10 09:17:15;;;;;;;2.47;2.03;;;13.60;52.10;;;;;;6277565;22;20441;-66
2023/04/10 09:19:42;;;;;;;2.85;2.30;;;13.60;50.10;;;;;;6276827;22;19999;-67
2023/04/10 09:22:08;;;;;;;3.05;2.42;;;13.70;49.40;;;;;;6277094;22;20023;-66
2023/04/10 09:24:41;;;;;;;2.63;2.10;;;13.70;49.80;;;;;;6277286;22;20006;-66
2023/04/10 09:27:07;;;;;;;3.28;2.58;;;13.80;50.00;;;;;;6277334;22;20015;-66
2023/04/10 09:29:44;;;;;;;2.83;2.30;;;13.80;48.70;;;;;;6276743;22;20093;-65
2023/04/10 09:32:11;;;;;;;3.50;2.25;;;13.90;49.60;;;;;;6276868;22;20434;-65
2023/04/10 09:34:55;;;;;;;2.85;2.13;;;14.00;48.60;;;;;;6276892;22;20075;-65
2023/04/10 09:37:21;;;;;;;2.10;1.90;;;14.00;47.70;;;;;;6276649;22;20010;-65
2023/04/10 09:39:47;;;;;;;3.25;2.15;;;14.10;48.70;;;;;;6276741;22;20307;-65
2023/04/10 09:42:14;;;;;;;2.97;2.38;;;14.10;47.40;;;;;;6276598;22;20430;-66
2023/04/10 09:44:40;;;;;;;2.45;2.25;;;14.10;47.70;;;;;;6276810;22;20011;-66
2023/04/10 09:47:21;;;;;;;2.38;2.17;;;14.20;47.20;;;;;;6276263;22;20006;-67
2023/04/10 09:49:47;;;;;;;2.33;2.03;;;14.30;47.30;;;;;;6276252;22;20026;-66
2023/04/10 09:52:20;;;;;;;2.75;2.22;;;14.30;46.40;;;;;;6250072;22;20433;-67
2023/04/10 09:54:46;;;;;;;;;;;14.40;48.50;;;;;;6277134;22;20050;-66
2023/04/10 09:57:17;;;;;;;3.00;2.00;;;14.40;47.80;;;;;;6274728;22;19899;-66
2023/04/10 09:59:53;;;;;;;4.03;2.33;;;14.50;46.50;;;;;;6276336;22;19996;-67
2023/04/10 10:02:20;;;;;;;2.45;2.08;;;14.70;46.90;;;;;;6276817;22;20004;-67
2023/04/10 10:04:47;;;;;;;2.47;2.10;;;14.70;45.40;;;;;;6275353;22;20011;-67
2023/04/10 10:07:18;;;;;;;3.28;2.42;;;14.80;46.60;;;;;;6276527;22;20413;-67
2023/04/10 10:09:46;;;;;;;2.08;1.88;;;14.90;47.40;;;;;;6276777;22;20007;-67
2023/04/10 10:12:15;;;;;;;3.15;2.30;;;15.00;46.80;;;;;;6277070;22;20326;-67
2023/04/10 10:14:50;;;;;;;3.30;2.20;;;15.00;47.00;;;;;;6276811;22;20000;-67
2023/04/10 10:17:20;;;;;;;2.92;2.42;;;15.20;46.30;;;;;;6276654;22;20000;-66
2023/04/10 10:19:57;;;;;;;3.20;2.33;;;15.30;46.80;;;;;;6276536;22;20429;-67
2023/04/10 10:22:25;;;;;;;4.47;2.00;;;15.30;45.40;;;;;;6276696;22;20039;-66
2023/04/10 10:24:55;;;;;;;2.75;2.28;;;15.40;44.30;;;;;;6276878;22;20007;-67
2023/04/10 10:27:22;;;;;;;2.55;1.98;;;15.40;44.10;;;;;;6276859;22;20081;-66
2023/04/10 10:29:49;;;;;;;2.78;2.17;;;15.40;44.50;;;;;;6276399;22;20006;-67
2023/04/10 10:32:17;;;;;;;3.05;2.00;;;15.40;44.60;;;;;;6276360;22;20003;-67
2023/04/10 10:34:43;;;;;;;5.57;2.00;;;15.50;44.80;;;;;;6276288;22;20014;-67
2023/04/10 10:37:10;;;;;;;4.03;2.05;;;15.50;44.20;;;;;;6276543;22;20418;-66
2023/04/10 10:40:00;;;;;;;2.53;1.90;;;15.60;44.50;;;;;;6276628;22;20453;-66
2023/04/10 10:42:39;;;;;;;2.38;2.10;;;15.70;45.10;;;;;;6276243;22;20003;-67
2023/04/10 10:45:14;;;;;;;2.35;1.95;;;15.80;44.00;;;;;;6277156;22;20008;-66
2023/04/10 10:47:47;;;;;;;2.58;2.15;;;15.90;44.90;;;;;;6276497;22;19996;-67
2023/04/10 10:50:13;;;;;;;2.20;1.80;;;16.00;45.00;;;;;;6276502;22;20396;-66
2023/04/10 10:52:45;;;;;;;2.22;1.90;;;16.20;44.00;;;;;;6276283;22;19996;-66
2023/04/10 10:55:35;;;;;;;2.50;2.00;;;16.20;43.20;;;;;;6276774;22;20006;-67
2023/04/10 10:58:06;;;;;;;2.13;1.80;;;16.40;44.30;;;;;;6276370;22;20323;-66
2023/04/10 11:00:50;;;;;;;2.45;1.85;;;16.50;43.40;;;;;;6276311;22;19996;-66
2023/04/10 11:03:36;;;;;;;3.20;2.20;;;16.60;43.40;;;;;;6276140;22;20012;-67
2023/04/10 11:06:07;;;;;;;3.38;2.28;;;16.70;43.30;;;;;;6275614;22;20008;-66
2023/04/10 11:08:39;;;;;;;2.55;2.00;;;16.80;42.30;;;;;;6276692;22;20044;-66
2023/04/10 11:11:09;;;;;;;2.20;1.67;;;16.80;43.10;;;;;;6276353;22;20000;-67
2023/04/10 11:13:40;;;;;;;2.53;2.05;;;16.90;43.00;;;;;;6276267;22;20417;-67
2023/04/10 11:16:09;;;;;;;2.35;1.70;;;17.00;42.30;;;;;;6276111;22;20000;-67
2023/04/10 11:18:44;;;;;;;2.45;2.13;;;17.00;41.40;;;;;;6276256;22;20004;-67
2023/04/10 11:21:16;;;;;;;2.85;1.92;;;17.00;41.20;;;;;;6276461;22;20049;-67
2023/04/10 11:23:54;;;;;;;2.10;1.88;;;17.10;41.80;;;;;;6276216;22;20018;-67
2023/04/10 11:26:32;;;;;;;3.28;2.00;;;17.10;41.90;;;;;;6276093;22;20011;-67
2023/04/10 11:28:59;;;;;;;2.05;1.67;;;17.20;40.80;;;;;;6276453;22;20073;-66
2023/04/10 11:31:25;;;;;;;6.25;2.30;;;17.20;41.10;;;;;;6276104;22;20008;-67
2023/04/10 11:34:04;;;;;;;1.88;1.40;;;17.20;40.80;;;;;;6276158;22;20418;-67
2023/04/10 11:36:32;;;;;;;2.33;2.03;;;17.20;41.20;;;;;;6276603;22;20008;-67
2023/04/10 11:39:09;;;;;;;2.80;2.00;;;17.30;41.70;;;;;;6276182;22;20078;-67
2023/04/10 11:41:36;;;;;;;2.70;1.90;;;17.40;41.20;;;;;;6276221;22;20083;-67
2023/04/10 11:44:07;;;;;;;2.15;1.90;;;17.50;40.90;;;;;;6275916;22;20039;-67
2023/04/10 11:46:40;;;;;;;2.22;1.80;;;17.50;40.20;;;;;;6276437;22;21230;-66
2023/04/10 11:49:08;;;;;;;3.58;2.80;;;17.60;39.20;;;;;;6275849;22;20003;-66
2023/04/10 11:51:35;;;;;;;2.10;1.90;;;17.60;39.80;;;;;;6276065;22;20038;-66
2023/04/10 11:54:09;;;;;;;2.67;1.73;;;17.70;39.80;;;;;;6275718;22;20050;-67
2023/04/10 11:56:36;;;;;;;1.92;1.70;;;17.80;40.30;;;;;;6276016;22;20010;-67
2023/04/10 11:59:06;;;;;;;2.33;1.70;;;17.80;40.50;;;;;;6276075;22;20000;-67
2023/04/10 12:01:32;;;;;;;2.15;1.75;;;17.90;40.00;;;;;;6276602;22;20092;-66
2023/04/10 12:03:59;;;;;;;3.13;1.83;;;17.90;40.70;;;;;;6276036;22;20008;-67
2023/04/10 12:06:26;;;;;;;1.98;1.70;;;18.00;40.10;;;;;;6275994;22;20028;-66
2023/04/10 12:08:52;;;;;;;3.28;2.10;;;18.10;40.20;;;;;;6275686;22;20029;-67
2023/04/10 12:11:27;;;;;;;1.85;1.60;;;18.20;40.60;;;;;;6275775;22;19999;-67
2023/04/10 12:13:57;;;;;;;2.33;1.67;;;18.30;39.80;;;;;;6276253;22;20004;-67
2023/04/10 12:16:24;;;;;;;2.78;1.73;;;18.40;39.30;;;;;;6276279;22;20015;-67
2023/04/10 12:18:51;;;;;;;2.40;1.98;;;18.40;40.40;;;;;;6275933;22;20415;-67
2023/04/10 12:21:17;;;;;;;2.75;1.90;;;18.50;39.20;;;;;;6276102;22;20104;-66
2023/04/10 12:23:42;;;;;;;2.25;1.80;;;18.60;39.30;;;;;;6275865;22;20008;-67
2023/04/10 12:26:12;;;;;;;3.05;2.50;;;18.70;37.90;;;;;;6275758;22;20000;-67
2023/04/10 12:28:40;;;;;;;3.13;1.90;;;18.80;40.10;;;;;;6276282;22;20014;-66
2023/04/10 12:31:06;;;;;;;2.45;2.00;;;18.80;40.10;;;;;;6277299;22;20067;-67
2023/04/10 12:33:32;;;;;;;3.53;1.30;;;19.00;39.00;;;;;;6277518;22;20006;-67
2023/04/10 12:35:58;;;;;;;2.30;1.90;;;19.00;38.50;;;;;;6277674;22;20004;-67
2023/04/10 12:38:36;;;;;;;2.13;1.80;;;19.00;38.30;;;;;;6277892;22;20015;-67
2023/04/10 12:41:02;;;;;;;2.08;1.83;;;19.00;37.20;;;;;;6277609;22;20007;-67
2023/04/10 12:43:41;;;;;;;2.22;1.80;;;19.00;37.70;;;;;;6277604;22;20008;-66
2023/04/10 12:46:22;;;;;;;2.45;1.70;;;19.00;39.00;;;;;;6277672;22;19996;-67
2023/04/10 12:48:48;;;;;;;2.40;1.90;;;19.00;38.50;;;;;;6277759;22;20077;-67
2023/04/10 12:51:14;;;;;;;2.35;1.75;;;19.10;38.30;;;;;;6277534;22;20015;-67
2023/04/10 12:53:45;;;;;;;2.83;1.98;;;19.20;38.60;;;;;;6277360;22;20019;-66
2023/04/10 12:56:12;;;;;;;4.32;1.80;;;19.30;39.20;;;;;;6277636;22;20011;-67